sensor_id;sensor_type;location;lat;lon;timestamp;pressure;altitude;pressure_sealevel;temperature;humidity
33075;BME280;19433;51.292;6.868;2023-02-18T00:01:12;101066.63;;;9.89;100.00
33075;BME280;19433;51.292;6.868;2023-02-18T00:03:39;101059.06;;;9.83;100.00
33075;BME280;19433;51.292;6.868;2023-02-18T00:06:16;101056.13;;;9.84;100.00
33075;BME280;19433;51.292;6.868;2023-02-18T00:08:43;101065.63;;;9.82;100.00
33075;BME280;19433;51.292;6.868;2023-02-18T00:11:08;101062.88;;;9.82;100.00
33075;BME280;19433;51.292;6.868;2023-02-18T00:13:34;101060.88;;;9.76;100.00
33075;BME280;19433;51.292;6.868;2023-02-18T00:16:11;101062.19;;;9.80;100.00
33075;BME280;19433;51.292;6.868;2023-02-18T00:18:37;101056.50;;;9.81;100.00
33075;BME280;19433;51.292;6.868;2023-02-18T00:21:04;101045.81;;;9.78;100.00
33075;BME280;19433;51.292;6.868;2023-02-18T00:23:30;101038.59;;;9.77;100.00
33075;BME280;19433;51.292;6.868;2023-02-18T00:26:14;101048.97;;;9.75;100.00
33075;BME280;19433;51.292;6.868;2023-02-18T00:28:40;101040.88;;;9.74;100.00
33075;BME280;19433;51.292;6.868;2023-02-18T00:31:07;101039.84;;;9.75;100.00
33075;BME280;19433;51.292;6.868;2023-02-18T00:33:33;101028.97;;;9.73;100.00
33075;BME280;19433;51.292;6.868;2023-02-18T00:36:08;101019.94;;;9.79;100.00
33075;BME280;19433;51.292;6.868;2023-02-18T00:38:34;101008.69;;;9.66;100.00
33075;BME280;19433;51.292;6.868;2023-02-18T00:41:00;101020.44;;;9.83;100.00
33075;BME280;19433;51.292;6.868;2023-02-18T00:43:26;101033.09;;;9.77;100.00
33075;BME280;19433;51.292;6.868;2023-02-18T00:45:52;101020.97;;;9.78;100.00
33075;BME280;19433;51.292;6.868;2023-02-18T00:48:17;101026.50;;;9.78;100.00
33075;BME280;19433;51.292;6.868;2023-02-18T00:50:43;101032.00;;;9.78;100.00
33075;BME280;19433;51.292;6.868;2023-02-18T00:53:09;101020.13;;;9.78;100.00
33075;BME280;19433;51.292;6.868;2023-02-18T00:55:41;101011.00;;;9.77;100.00
33075;BME280;19433;51.292;6.868;2023-02-18T00:58:07;101022.41;;;9.74;100.00
33075;BME280;19433;51.292;6.868;2023-02-18T01:00:33;101017.09;;;9.73;100.00
33075;BME280;19433;51.292;6.868;2023-02-18T01:02:58;101012.91;;;9.77;100.00
33075;BME280;19433;51.292;6.868;2023-02-18T01:05:23;101010.44;;;9.82;100.00
33075;BME280;19433;51.292;6.868;2023-02-18T01:07:49;101007.84;;;9.80;100.00
33075;BME280;19433;51.292;6.868;2023-02-18T01:10:14;100999.56;;;9.80;100.00
33075;BME280;19433;51.292;6.868;2023-02-18T01:12:40;100998.03;;;9.78;100.00
33075;BME280;19433;51.292;6.868;2023-02-18T01:15:06;100998.44;;;9.75;100.00
33075;BME280;19433;51.292;6.868;2023-02-18T01:17:32;100990.84;;;9.77;100.00
33075;BME280;19433;51.292;6.868;2023-02-18T01:19:58;100991.38;;;9.72;100.00
33075;BME280;19433;51.292;6.868;2023-02-18T01:22:24;101001.06;;;9.68;100.00
33075;BME280;19433;51.292;6.868;2023-02-18T01:24:49;100991.38;;;9.72;100.00
33075;BME280;19433;51.292;6.868;2023-02-18T01:27:14;100995.88;;;9.73;100.00
33075;BME280;19433;51.292;6.868;2023-02-18T01:29:40;100987.22;;;9.76;100.00
33075;BME280;19433;51.292;6.868;2023-02-18T01:32:05;100992.94;;;9.75;100.00
33075;BME280;19433;51.292;6.868;2023-02-18T01:34:30;100986.06;;;9.71;100.00
33075;BME280;19433;51.292;6.868;2023-02-18T01:36:55;100970.22;;;9.65;100.00
33075;BME280;19433;51.292;6.868;2023-02-18T01:39:21;100981.75;;;9.68;100.00
33075;BME280;19433;51.292;6.868;2023-02-18T01:41:46;100974.16;;;9.70;100.00
33075;BME280;19433;51.292;6.868;2023-02-18T01:44:16;100974.66;;;9.74;100.00
33075;BME280;19433;51.292;6.868;2023-02-18T01:46:42;100966.44;;;9.66;100.00
33075;BME280;19433;51.292;6.868;2023-02-18T01:49:09;100961.09;;;9.64;100.00
33075;BME280;19433;51.292;6.868;2023-02-18T01:51:39;100967.97;;;9.68;100.00
33075;BME280;19433;51.292;6.868;2023-02-18T01:54:10;100961.53;;;9.76;100.00
33075;BME280;19433;51.292;6.868;2023-02-18T01:59:12;100958.28;;;9.72;100.00
33075;BME280;19433;51.292;6.868;2023-02-18T02:01:41;100949.41;;;9.62;100.00
33075;BME280;19433;51.292;6.868;2023-02-18T02:04:08;100951.59;;;9.67;100.00
33075;BME280;19433;51.292;6.868;2023-02-18T02:06:33;100931.22;;;9.53;100.00
33075;BME280;19433;51.292;6.868;2023-02-18T02:09:02;100946.38;;;9.72;100.00
33075;BME280;19433;51.292;6.868;2023-02-18T02:11:53;100948.16;;;9.65;100.00
33075;BME280;19433;51.292;6.868;2023-02-18T02:14:52;100955.22;;;9.67;100.00
33075;BME280;19433;51.292;6.868;2023-02-18T02:20:16;100955.50;;;9.58;100.00
33075;BME280;19433;51.292;6.868;2023-02-18T02:28:59;100935.00;;;9.52;100.00
33075;BME280;19433;51.292;6.868;2023-02-18T02:31:46;100937.94;;;9.50;100.00
33075;BME280;19433;51.292;6.868;2023-02-18T02:37:17;100936.41;;;9.48;100.00
33075;BME280;19433;51.292;6.868;2023-02-18T02:43:20;100924.84;;;9.52;100.00
33075;BME280;19433;51.292;6.868;2023-02-18T02:48:48;100923.41;;;9.42;100.00
33075;BME280;19433;51.292;6.868;2023-02-18T02:54:10;100917.88;;;9.42;100.00
33075;BME280;19433;51.292;6.868;2023-02-18T02:56:36;100910.84;;;9.39;100.00
33075;BME280;19433;51.292;6.868;2023-02-18T02:59:07;100911.00;;;9.38;100.00
33075;BME280;19433;51.292;6.868;2023-02-18T03:01:40;100906.34;;;9.38;100.00
33075;BME280;19433;51.292;6.868;2023-02-18T03:04:22;100901.88;;;9.37;100.00
33075;BME280;19433;51.292;6.868;2023-02-18T03:07:01;100899.03;;;9.31;100.00
33075;BME280;19433;51.292;6.868;2023-02-18T03:13:06;100900.16;;;9.36;100.00
33075;BME280;19433;51.292;6.868;2023-02-18T03:15:13;100889.13;;;9.36;100.00
33075;BME280;19433;51.292;6.868;2023-02-18T03:17:51;100878.28;;;9.35;100.00
33075;BME280;19433;51.292;6.868;2023-02-18T03:20:27;100880.88;;;9.36;100.00
33075;BME280;19433;51.292;6.868;2023-02-18T03:22:57;100882.88;;;9.42;100.00
33075;BME280;19433;51.292;6.868;2023-02-18T03:25:25;100874.31;;;9.37;100.00
33075;BME280;19433;51.292;6.868;2023-02-18T03:28:20;100877.44;;;9.34;100.00
33075;BME280;19433;51.292;6.868;2023-02-18T03:30:50;100859.75;;;9.29;100.00
33075;BME280;19433;51.292;6.868;2023-02-18T03:33:22;100867.34;;;9.27;100.00
33075;BME280;19433;51.292;6.868;2023-02-18T03:35:50;100867.53;;;9.25;100.00
33075;BME280;19433;51.292;6.868;2023-02-18T03:40:58;100874.09;;;9.24;100.00
33075;BME280;19433;51.292;6.868;2023-02-18T03:43:23;100853.06;;;9.23;100.00
33075;BME280;19433;51.292;6.868;2023-02-18T03:45:49;100856.88;;;9.22;100.00
33075;BME280;19433;51.292;6.868;2023-02-18T03:48:14;100846.63;;;9.16;100.00
33075;BME280;19433;51.292;6.868;2023-02-18T03:50:39;100845.94;;;9.14;100.00
33075;BME280;19433;51.292;6.868;2023-02-18T03:53:05;100839.38;;;9.15;100.00
33075;BME280;19433;51.292;6.868;2023-02-18T03:55:30;100831.00;;;9.08;100.00
33075;BME280;19433;51.292;6.868;2023-02-18T03:57:55;100835.78;;;9.14;100.00
33075;BME280;19433;51.292;6.868;2023-02-18T04:00:20;100822.53;;;9.10;100.00
33075;BME280;19433;51.292;6.868;2023-02-18T04:02:46;100822.84;;;9.15;100.00
33075;BME280;19433;51.292;6.868;2023-02-18T04:05:11;100828.91;;;9.10;100.00
33075;BME280;19433;51.292;6.868;2023-02-18T04:07:37;100835.28;;;9.11;100.00
33075;BME280;19433;51.292;6.868;2023-02-18T04:10:04;100829.59;;;9.12;100.00
33075;BME280;19433;51.292;6.868;2023-02-18T04:12:30;100825.66;;;9.07;100.00
33075;BME280;19433;51.292;6.868;2023-02-18T04:14:55;100814.63;;;9.07;100.00
33075;BME280;19433;51.292;6.868;2023-02-18T04:17:21;100816.53;;;9.06;100.00
33075;BME280;19433;51.292;6.868;2023-02-18T04:19:46;100822.41;;;9.03;100.00
33075;BME280;19433;51.292;6.868;2023-02-18T04:22:12;100808.81;;;9.02;100.00
33075;BME280;19433;51.292;6.868;2023-02-18T04:24:37;100804.06;;;8.96;100.00
33075;BME280;19433;51.292;6.868;2023-02-18T04:27:02;100812.25;;;9.04;100.00
33075;BME280;19433;51.292;6.868;2023-02-18T04:29:27;100802.84;;;8.98;100.00
33075;BME280;19433;51.292;6.868;2023-02-18T04:31:53;100802.16;;;8.96;100.00
33075;BME280;19433;51.292;6.868;2023-02-18T04:34:18;100812.44;;;9.02;100.00
33075;BME280;19433;51.292;6.868;2023-02-18T04:36:43;100803.88;;;8.97;100.00
33075;BME280;19433;51.292;6.868;2023-02-18T04:39:09;100817.84;;;8.96;100.00
33075;BME280;19433;51.292;6.868;2023-02-18T04:41:34;100798.91;;;8.93;100.00
33075;BME280;19433;51.292;6.868;2023-02-18T04:43:59;100796.34;;;8.91;100.00
33075;BME280;19433;51.292;6.868;2023-02-18T04:46:25;100791.69;;;8.92;100.00
33075;BME280;19433;51.292;6.868;2023-02-18T04:48:50;100785.59;;;8.81;100.00
33075;BME280;19433;51.292;6.868;2023-02-18T04:51:16;100794.72;;;8.82;100.00
33075;BME280;19433;51.292;6.868;2023-02-18T04:53:41;100779.28;;;8.73;100.00
33075;BME280;19433;51.292;6.868;2023-02-18T04:56:06;100787.50;;;8.81;100.00
33075;BME280;19433;51.292;6.868;2023-02-18T04:58:32;100786.81;;;8.79;100.00
33075;BME280;19433;51.292;6.868;2023-02-18T05:01:01;100783.56;;;8.75;100.00
33075;BME280;19433;51.292;6.868;2023-02-18T05:03:27;100787.00;;;8.77;100.00
33075;BME280;19433;51.292;6.868;2023-02-18T05:05:53;100770.16;;;8.72;100.00
33075;BME280;19433;51.292;6.868;2023-02-18T05:08:18;100775.38;;;8.67;100.00
33075;BME280;19433;51.292;6.868;2023-02-18T05:10:43;100785.19;;;8.70;100.00
33075;BME280;19433;51.292;6.868;2023-02-18T05:13:09;100777.19;;;8.75;100.00
33075;BME280;19433;51.292;6.868;2023-02-18T05:15:34;100771.09;;;8.65;100.00
33075;BME280;19433;51.292;6.868;2023-02-18T05:17:59;100771.78;;;8.67;100.00
33075;BME280;19433;51.292;6.868;2023-02-18T05:20:25;100762.66;;;8.66;100.00
33075;BME280;19433;51.292;6.868;2023-02-18T05:22:50;100755.31;;;8.59;100.00
33075;BME280;19433;51.292;6.868;2023-02-18T05:25:15;100761.31;;;8.62;100.00
33075;BME280;19433;51.292;6.868;2023-02-18T05:27:42;100746.59;;;8.55;100.00
33075;BME280;19433;51.292;6.868;2023-02-18T05:30:08;100743.91;;;8.62;100.00
33075;BME280;19433;51.292;6.868;2023-02-18T05:32:33;100752.00;;;8.63;100.00
33075;BME280;19433;51.292;6.868;2023-02-18T05:34:58;100732.06;;;8.61;100.00
33075;BME280;19433;51.292;6.868;2023-02-18T05:37:24;100741.84;;;8.64;100.00
33075;BME280;19433;51.292;6.868;2023-02-18T05:39:49;100745.16;;;8.59;100.00
33075;BME280;19433;51.292;6.868;2023-02-18T05:42:14;100726.06;;;8.58;100.00
33075;BME280;19433;51.292;6.868;2023-02-18T05:44:39;100731.19;;;8.61;100.00
33075;BME280;19433;51.292;6.868;2023-02-18T05:47:08;100718.81;;;8.57;100.00
33075;BME280;19433;51.292;6.868;2023-02-18T05:49:34;100712.00;;;8.53;100.00
33075;BME280;19433;51.292;6.868;2023-02-18T05:52:00;100711.59;;;8.56;100.00
33075;BME280;19433;51.292;6.868;2023-02-18T05:54:26;100724.34;;;8.57;100.00
33075;BME280;19433;51.292;6.868;2023-02-18T05:56:52;100709.44;;;8.51;100.00
33075;BME280;19433;51.292;6.868;2023-02-18T05:59:17;100702.13;;;8.58;100.00
33075;BME280;19433;51.292;6.868;2023-02-18T06:01:43;100702.72;;;8.54;100.00
33075;BME280;19433;51.292;6.868;2023-02-18T06:04:09;100715.13;;;8.50;100.00
33075;BME280;19433;51.292;6.868;2023-02-18T06:06:34;100709.25;;;8.53;100.00
33075;BME280;19433;51.292;6.868;2023-02-18T06:09:00;100706.09;;;8.56;100.00
33075;BME280;19433;51.292;6.868;2023-02-18T06:11:25;100711.31;;;8.51;100.00
33075;BME280;19433;51.292;6.868;2023-02-18T06:13:50;100706.88;;;8.50;100.00
33075;BME280;19433;51.292;6.868;2023-02-18T06:16:16;100712.84;;;8.53;100.00
33075;BME280;19433;51.292;6.868;2023-02-18T06:18:41;100719.59;;;8.51;100.00
33075;BME280;19433;51.292;6.868;2023-02-18T06:21:06;100709.78;;;8.48;100.00
33075;BME280;19433;51.292;6.868;2023-02-18T06:23:31;100711.16;;;8.52;100.00
33075;BME280;19433;51.292;6.868;2023-02-18T06:25:57;100704.47;;;8.46;100.00
33075;BME280;19433;51.292;6.868;2023-02-18T06:28:22;100711.19;;;8.44;100.00
33075;BME280;19433;51.292;6.868;2023-02-18T06:30:48;100712.72;;;8.46;100.00
33075;BME280;19433;51.292;6.868;2023-02-18T06:33:13;100709.97;;;8.46;100.00
33075;BME280;19433;51.292;6.868;2023-02-18T06:35:39;100709.97;;;8.46;100.00
33075;BME280;19433;51.292;6.868;2023-02-18T06:38:05;100705.50;;;8.45;100.00
33075;BME280;19433;51.292;6.868;2023-02-18T06:40:30;100695.72;;;8.43;100.00
33075;BME280;19433;51.292;6.868;2023-02-18T06:42:55;100706.38;;;8.46;100.00
33075;BME280;19433;51.292;6.868;2023-02-18T06:45:21;100689.66;;;8.48;100.00
33075;BME280;19433;51.292;6.868;2023-02-18T06:47:46;100696.03;;;8.48;100.00
33075;BME280;19433;51.292;6.868;2023-02-18T06:50:12;100697.75;;;8.49;100.00
33075;BME280;19433;51.292;6.868;2023-02-18T06:52:37;100701.53;;;8.48;100.00
33075;BME280;19433;51.292;6.868;2023-02-18T06:55:07;100712.84;;;8.53;100.00
33075;BME280;19433;51.292;6.868;2023-02-18T06:57:33;100702.22;;;8.50;100.00
33075;BME280;19433;51.292;6.868;2023-02-18T06:59:59;100707.91;;;8.49;100.00
33075;BME280;19433;51.292;6.868;2023-02-18T07:02:26;100714.63;;;8.46;100.00
33075;BME280;19433;51.292;6.868;2023-02-18T07:04:51;100709.31;;;8.44;100.00
33075;BME280;19433;51.292;6.868;2023-02-18T07:07:16;100719.09;;;8.47;100.00
33075;BME280;19433;51.292;6.868;2023-02-18T07:09:41;100713.28;;;8.42;100.00
33075;BME280;19433;51.292;6.868;2023-02-18T07:12:07;100711.88;;;8.46;100.00
33075;BME280;19433;51.292;6.868;2023-02-18T07:14:32;100717.69;;;8.51;100.00
33075;BME280;19433;51.292;6.868;2023-02-18T07:16:57;100715.78;;;8.52;100.00
33075;BME280;19433;51.292;6.868;2023-02-18T07:19:23;100710.47;;;8.50;100.00
33075;BME280;19433;51.292;6.868;2023-02-18T07:21:48;100702.56;;;8.47;100.00
33075;BME280;19433;51.292;6.868;2023-02-18T07:24:13;100701.84;;;8.53;100.00
33075;BME280;19433;51.292;6.868;2023-02-18T07:26:38;100693.94;;;8.50;100.00
33075;BME280;19433;51.292;6.868;2023-02-18T07:29:04;100687.41;;;8.51;100.00
33075;BME280;19433;51.292;6.868;2023-02-18T07:31:29;100695.94;;;8.56;100.00
33075;BME280;19433;51.292;6.868;2023-02-18T07:33:54;100695.38;;;8.61;100.00
33075;BME280;19433;51.292;6.868;2023-02-18T07:36:20;100695.94;;;8.56;100.00
33075;BME280;19433;51.292;6.868;2023-02-18T07:38:45;100714.66;;;8.61;100.00
33075;BME280;19433;51.292;6.868;2023-02-18T07:41:16;100709.66;;;8.64;100.00
33075;BME280;19433;51.292;6.868;2023-02-18T07:43:43;100717.25;;;8.62;100.00
33075;BME280;19433;51.292;6.868;2023-02-18T07:46:08;100721.22;;;8.60;100.00
33075;BME280;19433;51.292;6.868;2023-02-18T07:48:33;100730.69;;;8.57;100.00
33075;BME280;19433;51.292;6.868;2023-02-18T07:50:59;100747.63;;;8.54;100.00
33075;BME280;19433;51.292;6.868;2023-02-18T07:53:24;100752.91;;;8.56;100.00
33075;BME280;19433;51.292;6.868;2023-02-18T07:55:49;100751.69;;;8.58;100.00
33075;BME280;19433;51.292;6.868;2023-02-18T07:58:24;100742.66;;;8.50;100.00
33075;BME280;19433;51.292;6.868;2023-02-18T08:00:51;100739.03;;;8.49;100.00
33075;BME280;19433;51.292;6.868;2023-02-18T08:03:18;100733.72;;;8.48;100.00
33075;BME280;19433;51.292;6.868;2023-02-18T08:05:47;100734.25;;;8.43;100.00
33075;BME280;19433;51.292;6.868;2023-02-18T08:08:14;100733.13;;;8.37;100.00
33075;BME280;19433;51.292;6.868;2023-02-18T08:10:41;100741.75;;;8.34;100.00
33075;BME280;19433;51.292;6.868;2023-02-18T08:13:07;100750.31;;;8.31;100.00
33075;BME280;19433;51.292;6.868;2023-02-18T08:15:32;100759.19;;;8.19;100.00
33075;BME280;19433;51.292;6.868;2023-02-18T08:17:57;100760.47;;;8.08;100.00
33075;BME280;19433;51.292;6.868;2023-02-18T08:20:23;100773.00;;;8.10;100.00
33075;BME280;19433;51.292;6.868;2023-02-18T08:22:49;100768.22;;;8.04;100.00
33075;BME280;19433;51.292;6.868;2023-02-18T08:25:14;100780.78;;;8.07;100.00
33075;BME280;19433;51.292;6.868;2023-02-18T08:27:39;100778.28;;;8.20;100.00
33075;BME280;19433;51.292;6.868;2023-02-18T08:30:05;100782.25;;;8.18;100.00
33075;BME280;19433;51.292;6.868;2023-02-18T08:32:31;100777.59;;;8.18;100.00
33075;BME280;19433;51.292;6.868;2023-02-18T08:34:56;100776.56;;;8.19;100.00
33075;BME280;19433;51.292;6.868;2023-02-18T08:37:21;100769.16;;;8.20;100.00
33075;BME280;19433;51.292;6.868;2023-02-18T08:39:47;100766.41;;;8.20;100.00
33075;BME280;19433;51.292;6.868;2023-02-18T08:42:13;100761.78;;;8.43;100.00
33075;BME280;19433;51.292;6.868;2023-02-18T08:44:38;100756.09;;;8.44;100.00
33075;BME280;19433;51.292;6.868;2023-02-18T08:47:03;100772.41;;;8.54;100.00
33075;BME280;19433;51.292;6.868;2023-02-18T08:49:29;100760.63;;;8.60;100.00
33075;BME280;19433;51.292;6.868;2023-02-18T08:51:54;100768.84;;;8.68;100.00
33075;BME280;19433;51.292;6.868;2023-02-18T08:54:19;100753.31;;;8.53;100.00
33075;BME280;19433;51.292;6.868;2023-02-18T08:56:45;100758.94;;;8.36;100.00
33075;BME280;19433;51.292;6.868;2023-02-18T08:59:10;100751.22;;;8.32;100.00
33075;BME280;19433;51.292;6.868;2023-02-18T09:01:35;100753.50;;;8.20;100.00
33075;BME280;19433;51.292;6.868;2023-02-18T09:04:00;100755.75;;;8.17;100.00
33075;BME280;19433;51.292;6.868;2023-02-18T09:06:26;100756.81;;;8.16;100.00
33075;BME280;19433;51.292;6.868;2023-02-18T09:08:51;100759.56;;;8.16;100.00
33075;BME280;19433;51.292;6.868;2023-02-18T09:11:18;100751.66;;;8.12;100.00
33075;BME280;19433;51.292;6.868;2023-02-18T09:13:44;100763.47;;;8.21;100.00
33075;BME280;19433;51.292;6.868;2023-02-18T09:16:12;100758.84;;;8.22;100.00
33075;BME280;19433;51.292;6.868;2023-02-18T09:18:38;100764.34;;;8.22;100.00
33075;BME280;19433;51.292;6.868;2023-02-18T09:21:05;100761.94;;;8.19;100.00
33075;BME280;19433;51.292;6.868;2023-02-18T09:23:32;100749.53;;;8.23;100.00
33075;BME280;19433;51.292;6.868;2023-02-18T09:25:57;100745.75;;;8.24;100.00
33075;BME280;19433;51.292;6.868;2023-02-18T09:28:23;100738.13;;;8.26;100.00
33075;BME280;19433;51.292;6.868;2023-02-18T09:30:49;100741.56;;;8.28;100.00
33075;BME280;19433;51.292;6.868;2023-02-18T09:33:15;100746.56;;;8.32;100.00
33075;BME280;19433;51.292;6.868;2023-02-18T09:35:41;100758.94;;;8.28;100.00
33075;BME280;19433;51.292;6.868;2023-02-18T09:38:10;100743.66;;;8.26;100.00
33075;BME280;19433;51.292;6.868;2023-02-18T09:40:38;100746.72;;;8.31;100.00
33075;BME280;19433;51.292;6.868;2023-02-18T09:43:06;100753.06;;;8.31;100.00
33075;BME280;19433;51.292;6.868;2023-02-18T09:45:31;100750.50;;;8.30;100.00
33075;BME280;19433;51.292;6.868;2023-02-18T09:47:57;100744.50;;;8.34;100.00
33075;BME280;19433;51.292;6.868;2023-02-18T09:50:32;100758.38;;;8.41;100.00
33075;BME280;19433;51.292;6.868;2023-02-18T09:53:00;100746.50;;;8.40;100.00
33075;BME280;19433;51.292;6.868;2023-02-18T09:55:29;100741.47;;;8.44;100.00
33075;BME280;19433;51.292;6.868;2023-02-18T09:57:58;100738.00;;;8.50;100.00
33075;BME280;19433;51.292;6.868;2023-02-18T10:00:41;100728.13;;;8.56;100.00
33075;BME280;19433;51.292;6.868;2023-02-18T10:03:12;100720.72;;;8.56;100.00
33075;BME280;19433;51.292;6.868;2023-02-18T10:05:54;100713.72;;;8.54;100.00
33075;BME280;19433;51.292;6.868;2023-02-18T10:08:34;100730.06;;;8.55;100.00
33075;BME280;19433;51.292;6.868;2023-02-18T10:11:00;100732.31;;;8.52;100.00
33075;BME280;19433;51.292;6.868;2023-02-18T10:13:32;100723.13;;;8.59;100.00
33075;BME280;19433;51.292;6.868;2023-02-18T10:15:58;100744.78;;;8.62;100.00
33075;BME280;19433;51.292;6.868;2023-02-18T10:18:29;100726.91;;;8.58;100.00
33075;BME280;19433;51.292;6.868;2023-02-18T10:21:06;100730.06;;;8.55;100.00
33075;BME280;19433;51.292;6.868;2023-02-18T10:23:35;100720.94;;;8.55;100.00
33075;BME280;19433;51.292;6.868;2023-02-18T10:26:05;100734.81;;;8.61;100.00
33075;BME280;19433;51.292;6.868;2023-02-18T10:28:31;100737.88;;;8.66;100.00
33075;BME280;19433;51.292;6.868;2023-02-18T10:31:06;100746.81;;;8.68;100.00
33075;BME280;19433;51.292;6.868;2023-02-18T10:34:18;100743.66;;;8.71;100.00
33075;BME280;19433;51.292;6.868;2023-02-18T10:36:54;100731.09;;;8.54;100.00
33075;BME280;19433;51.292;6.868;2023-02-18T10:39:42;100749.56;;;8.45;100.00
33075;BME280;19433;51.292;6.868;2023-02-18T10:42:29;100749.47;;;8.31;100.00
33075;BME280;19433;51.292;6.868;2023-02-18T10:47:59;100767.94;;;8.22;100.00
33075;BME280;19433;51.292;6.868;2023-02-18T10:50:40;100771.06;;;8.19;100.00
33075;BME280;19433;51.292;6.868;2023-02-18T10:53:18;100775.63;;;8.27;100.00
33075;BME280;19433;51.292;6.868;2023-02-18T10:55:46;100761.22;;;8.25;100.00
33075;BME280;19433;51.292;6.868;2023-02-18T11:00:55;100771.41;;;8.16;100.00
33075;BME280;19433;51.292;6.868;2023-02-18T11:03:51;100777.09;;;8.15;100.00
33075;BME280;19433;51.292;6.868;2023-02-18T11:06:33;100773.50;;;8.14;100.00
33075;BME280;19433;51.292;6.868;2023-02-18T11:09:02;100773.38;;;8.07;100.00
33075;BME280;19433;51.292;6.868;2023-02-18T11:11:30;100772.69;;;8.05;100.00
33075;BME280;19433;51.292;6.868;2023-02-18T11:13:59;100772.94;;;8.19;100.00
33075;BME280;19433;51.292;6.868;2023-02-18T11:16:42;100777.84;;;8.08;100.00
33075;BME280;19433;51.292;6.868;2023-02-18T11:19:32;100780.88;;;8.13;100.00
33075;BME280;19433;51.292;6.868;2023-02-18T11:22:19;100784.22;;;8.01;100.00
33075;BME280;19433;51.292;6.868;2023-02-18T11:24:46;100773.75;;;7.96;100.00
33075;BME280;19433;51.292;6.868;2023-02-18T11:27:24;100781.38;;;7.94;100.00
33075;BME280;19433;51.292;6.868;2023-02-18T11:30:03;100777.38;;;7.97;100.00
33075;BME280;19433;51.292;6.868;2023-02-18T11:32:30;100777.25;;;7.90;100.00
33075;BME280;19433;51.292;6.868;2023-02-18T11:34:58;100778.22;;;7.97;100.00
33075;BME280;19433;51.292;6.868;2023-02-18T11:37:23;100770.16;;;7.96;100.00
33075;BME280;19433;51.292;6.868;2023-02-18T11:39:51;100777.19;;;7.98;100.00
33075;BME280;19433;51.292;6.868;2023-02-18T11:42:20;100772.91;;;7.96;100.00
33075;BME280;19433;51.292;6.868;2023-02-18T11:45:25;100773.94;;;7.95;100.00
33075;BME280;19433;51.292;6.868;2023-02-18T11:48:01;100772.88;;;8.04;100.00
33075;BME280;19433;51.292;6.868;2023-02-18T11:50:30;100771.50;;;8.00;100.00
33075;BME280;19433;51.292;6.868;2023-02-18T11:52:56;100772.88;;;8.04;100.00
33075;BME280;19433;51.292;6.868;2023-02-18T11:55:27;100777.84;;;8.08;100.00
33075;BME280;19433;51.292;6.868;2023-02-18T11:58:02;100772.69;;;8.05;100.00
33075;BME280;19433;51.292;6.868;2023-02-18T12:00:37;100769.44;;;8.02;100.00
33075;BME280;19433;51.292;6.868;2023-02-18T12:03:18;100770.81;;;8.06;100.00
33075;BME280;19433;51.292;6.868;2023-02-18T12:05:48;100775.56;;;8.12;100.00
33075;BME280;19433;51.292;6.868;2023-02-18T12:08:19;100768.81;;;8.23;100.00
33075;BME280;19433;51.292;6.868;2023-02-18T12:10:49;100770.69;;;8.22;100.00
33075;BME280;19433;51.292;6.868;2023-02-18T12:13:30;100775.81;;;8.25;100.00
33075;BME280;19433;51.292;6.868;2023-02-18T12:16:10;100771.47;;;8.39;100.00
33075;BME280;19433;51.292;6.868;2023-02-18T12:22:10;100754.38;;;8.21;100.00
33075;BME280;19433;51.292;6.868;2023-02-18T12:27:16;100749.94;;;8.42;100.00
33075;BME280;19433;51.292;6.868;2023-02-18T12:33:05;100760.47;;;8.31;100.00
33075;BME280;19433;51.292;6.868;2023-02-18T12:35:56;100757.72;;;8.31;100.00
33075;BME280;19433;51.292;6.868;2023-02-18T12:38:51;100764.69;;;8.19;100.00
33075;BME280;19433;51.292;6.868;2023-02-18T12:46:56;100753.16;;;8.23;100.00
33075;BME280;19433;51.292;6.868;2023-02-18T12:52:17;100751.66;;;8.12;100.00
33075;BME280;19433;51.292;6.868;2023-02-18T12:55:11;100763.50;;;8.13;100.00
33075;BME280;19433;51.292;6.868;2023-02-18T13:06:37;100752.59;;;8.28;100.00
33075;BME280;19433;51.292;6.868;2023-02-18T13:12:13;100743.47;;;8.27;100.00
33075;BME280;19433;51.292;6.868;2023-02-18T13:14:47;100751.91;;;8.34;100.00
33075;BME280;19433;51.292;6.868;2023-02-18T13:17:16;100753.78;;;8.33;100.00
33075;BME280;19433;51.292;6.868;2023-02-18T13:19:50;100757.63;;;8.24;100.00
33075;BME280;19433;51.292;6.868;2023-02-18T13:22:19;100749.53;;;8.23;100.00
33075;BME280;19433;51.292;6.868;2023-02-18T13:24:47;100758.47;;;8.25;100.00
33075;BME280;19433;51.292;6.868;2023-02-18T13:27:51;100767.56;;;8.33;100.00
33075;BME280;19433;51.292;6.868;2023-02-18T13:35:45;100749.16;;;8.34;100.00
33075;BME280;19433;51.292;6.868;2023-02-18T13:38:20;100747.56;;;8.31;100.00
33075;BME280;19433;51.292;6.868;2023-02-18T13:40:51;100753.63;;;8.35;100.00
33075;BME280;19433;51.292;6.868;2023-02-18T13:43:19;100761.88;;;8.35;100.00
33075;BME280;19433;51.292;6.868;2023-02-18T13:46:17;100753.44;;;8.36;100.00
33075;BME280;19433;51.292;6.868;2023-02-18T13:51:32;100752.94;;;8.33;100.00
33075;BME280;19433;51.292;6.868;2023-02-18T13:56:39;100743.28;;;8.29;100.00
33075;BME280;19433;51.292;6.868;2023-02-18T13:59:16;100738.31;;;8.32;100.00
33075;BME280;19433;51.292;6.868;2023-02-18T14:01:45;100742.25;;;8.30;100.00
33075;BME280;19433;51.292;6.868;2023-02-18T14:04:33;100748.28;;;8.33;100.00
33075;BME280;19433;51.292;6.868;2023-02-18T14:09:44;100741.84;;;8.41;100.00
33075;BME280;19433;51.292;6.868;2023-02-18T14:12:24;100745.41;;;8.50;100.00
33075;BME280;19433;51.292;6.868;2023-02-18T14:14:50;100741.31;;;8.45;100.00
33075;BME280;19433;51.292;6.868;2023-02-18T14:19:54;100741.25;;;8.54;100.00
33075;BME280;19433;51.292;6.868;2023-02-18T14:22:33;100736.88;;;8.59;100.00